Flight Track Log - Related Links

Times and Time Zones

All times are in EDT time to prevent confusion due to time zone crossing. See the LOF3385 flight status page for this flight to view local times or setup timezone preferences in your user account.

Time Position Orientation Groundspeed Altitude Reporting Facility
EDT Latitude Longitude Course Direction KTS MPH feet Rate Location/Type
Tue 08:44:31 AM 42.8831 -85.4564 248° West 170 196 2,800  Level Chicago Center
Tue 08:45:33 AM 42.8478 -85.4067 134° Southeast 214 246 4,700 1,887 Climbing Chicago Center
Tue 08:46:35 AM 42.8092 -85.4778 234° Southwest 248 285 6,700 1,935 Climbing Chicago Center
Tue 08:47:37 AM 42.7883 -85.5744 254° West 259 298 8,700 2,081 Climbing Chicago Center
Tue 08:48:00 AM 42.7281 -85.9065 248° West  Level FlightAware
Tue 08:48:39 AM 42.7678 -85.6733 254° West 268 308 11,000  Level Chicago Center
Tue 08:49:00 AM 42.7038 -85.9874 248° West  Level FlightAware
Tue 08:49:41 AM 42.7461 -85.7764 254° West 277 319 12,000  Level Chicago Center
Tue 08:50:43 AM 42.7206 -85.8892 253° West 299 344 13,400 1,306 Climbing Chicago Center
Tue 08:51:45 AM 42.6911 -86.0322 254° West 322 371 14,700 1,210 Climbing Chicago Center
Tue 08:52:47 AM 42.6675 -86.1567 256° West 335 386 15,900 581 Climbing Chicago Center
Tue 08:53:49 AM 42.6436 -86.2867 256° West 349 402 15,900  Level Chicago Center
Tue 08:54:51 AM 42.6178 -86.4178 255° West 357 411 15,900  Level Chicago Center
Tue 08:55:53 AM 42.5936 -86.5497 256° West 361 415 15,900  Level Chicago Center
Tue 08:56:55 AM 42.5689 -86.6839 256° West 364 419 15,900 -339 Level Chicago Center
Tue 08:57:57 AM 42.5389 -86.8136 253° West 365 420 15,200 -960 Descending Chicago Center
Tue 08:59:00 AM 42.4983 -86.9583 249° West 349 402 13,900 -1,104 Descending Chicago Center
Tue 09:00:02 AM 42.4647 -87.0728 248° West 332 382 12,900 -1,306 Descending Chicago Center
Tue 09:01:04 AM 42.4342 -87.1858 250° West 324 373 11,200 -1,403 Descending Chicago Center
Tue 09:02:06 AM 42.4014 -87.3058 250° West 338 389 10,000 -581 Descending Chicago Center
Tue 09:03:08 AM 42.3672 -87.4275 249° West 339 390 10,000  Level Chicago Center
Tue 09:04:10 AM 42.3306 -87.5444 247° West 342 394 10,000  Level Chicago Center
Tue 09:05:12 AM 42.2392 -87.6389 217° Southwest 346 398 10,000  Level Chicago Center
Tue 09:06:14 AM 42.1633 -87.7194 218° Southwest 349 402 10,000 -290 Level Chicago Center
Tue 09:07:16 AM 42.1031 -87.7892 221° Southwest 297 342 9,400 -919 Descending Chicago Center
Tue 09:08:18 AM 42.0917 -87.8853 261° West 266 306 8,100 -1,161 Descending Chicago Center
Tue 09:09:20 AM 42.0917 -88.0058 270° West 271 312 7,000 -774 Descending Chicago Center
Tue 09:10:22 AM 42.0911 -88.1000 270° West 258 297 6,500 -823 Descending Chicago Center
Tue 09:11:24 AM 42.0889 -88.1964 268° West 259 298 5,300 -1,161 Descending Chicago Center
Tue 09:12:26 AM 42.0703 -88.2933 256° West 269 310 4,100 -624 Descending Chicago Center
Tue 09:13:29 AM 42.0219 -88.3494 221° Southwest 274 315 4,000 -48 Descending Chicago Center
Tue 09:14:31 AM 41.9722 -88.3028 145° Southeast 240 276 4,000  Level Chicago Center
Tue 09:15:34 AM 41.9839 -88.2311 78° East 213 245 4,000  Level Chicago Center
Tue 09:16:35 AM 41.9836 -88.1647 90° East 190 219 4,000 -195 Level Chicago Center
Tue 09:17:37 AM 41.9828 -88.0967 91° East 184 212 3,600 -387 Descending Chicago Center

Login

Don't have an account? Register now (free) for customized features, flight alerts, and more!